Chicago, Illinois
Traffic Map
Current Weather Conditions
Chicago, Illinois
Clear
Clear
60°
Feels Like: 60°
Wind Chill: 60° Ceiling: Unl
Heat Index: 60° Visibility: 10mi
Dew Point: 52° Wind: 0mph
Humidity: 75% Direction: ° ()
Pressure: 30.03in Gusts: 0mph
Raw Report DataKMDW 180451Z 00000KT 10SM CLR 16/11 A3003 RMK AO2 SLP167 T01560111
Traffic Incident Summary
Active as of:
Severity:
Category:
InformationThere was an issue retrieving the traffic information for this location. Please try a different location or try again shortly.
Advertisements
Track Severe Weather on mobile